Bilbao, Spain
Current Conditions -  °F | °C
As of 9:00 AM on Friday 24 Oct 2014 (Local Time) from LEBB Reporting Station
Clear Clear  
Wind Chill: 55°   Ceiling: Unl
Heat Index: 55°   Visibility: 6mi
Dew Point: 39°   Wind: 2mph
Humidity: 54%   Direction: NA
Pressure: 30.09"   Gusts: NA
Location:  43.26°N, 2.92°W
Report Text: LEBB 240700Z VRB02KT CAVOK 13/04 Q1019 NOSIG
Loading
Personal Weather Stations






























Interactive Weather Map New forecast layout! Learn more

10-Day Weather Forecast

Advertisements
Track Severe Weather on mobile